sensor_id;sensor_type;location;lat;lon;timestamp;pressure;altitude;pressure_sealevel;temperature;humidity
6132;BME280;3097;42.692;23.278;2023-03-24T00:00:31;95102.88;;;7.64;87.07
6132;BME280;3097;42.692;23.278;2023-03-24T00:02:56;95063.78;;;7.35;87.39
6132;BME280;3097;42.692;23.278;2023-03-24T00:05:26;95106.81;;;7.73;87.01
6132;BME280;3097;42.692;23.278;2023-03-24T00:07:52;95101.28;;;7.63;87.06
6132;BME280;3097;42.692;23.278;2023-03-24T00:10:19;95111.16;;;7.66;87.79
6132;BME280;3097;42.692;23.278;2023-03-24T00:12:47;95111.34;;;7.64;87.74
6132;BME280;3097;42.692;23.278;2023-03-24T00:15:16;95127.31;;;7.60;87.98
6132;BME280;3097;42.692;23.278;2023-03-24T00:17:46;95098.13;;;7.48;87.85
6132;BME280;3097;42.692;23.278;2023-03-24T00:20:15;95127.31;;;7.53;88.46
6132;BME280;3097;42.692;23.278;2023-03-24T00:22:45;95113.91;;;7.58;88.52
6132;BME280;3097;42.692;23.278;2023-03-24T00:25:13;95033.41;;;7.19;88.05
6132;BME280;3097;42.692;23.278;2023-03-24T00:27:39;95103.84;;;7.36;88.81
6132;BME280;3097;42.692;23.278;2023-03-24T00:30:07;95125.34;;;7.55;88.94
6132;BME280;3097;42.692;23.278;2023-03-24T00:32:34;95114.50;;;7.53;89.11
6132;BME280;3097;42.692;23.278;2023-03-24T00:35:03;95123.38;;;7.51;88.79
6132;BME280;3097;42.692;23.278;2023-03-24T00:37:28;95128.50;;;7.51;89.03
6132;BME280;3097;42.692;23.278;2023-03-24T00:39:54;95114.28;;;7.42;88.88
6132;BME280;3097;42.692;23.278;2023-03-24T00:42:19;95035.31;;;6.84;88.96
6132;BME280;3097;42.692;23.278;2023-03-24T00:44:45;95105.97;;;7.26;88.97
6132;BME280;3097;42.692;23.278;2023-03-24T00:47:11;95105.41;;;7.37;88.57
6132;BME280;3097;42.692;23.278;2023-03-24T00:49:37;95108.97;;;7.36;88.51
6132;BME280;3097;42.692;23.278;2023-03-24T00:52:20;95113.31;;;7.36;88.25
6132;BME280;3097;42.692;23.278;2023-03-24T00:54:48;95109.94;;;7.29;88.15
6132;BME280;3097;42.692;23.278;2023-03-24T00:57:15;95112.69;;;7.27;88.24
6132;BME280;3097;42.692;23.278;2023-03-24T00:59:49;95115.25;;;7.27;88.33
6132;BME280;3097;42.692;23.278;2023-03-24T01:02:20;95116.84;;;7.28;87.88
6132;BME280;3097;42.692;23.278;2023-03-24T01:04:53;95106.53;;;7.15;87.98
6132;BME280;3097;42.692;23.278;2023-03-24T01:07:23;95099.25;;;7.06;88.29
6132;BME280;3097;42.692;23.278;2023-03-24T01:09:49;95109.69;;;7.04;87.96
6132;BME280;3097;42.692;23.278;2023-03-24T01:12:30;95077.84;;;6.79;88.61
6132;BME280;3097;42.692;23.278;2023-03-24T01:14:57;95105.88;;;6.93;88.77
6132;BME280;3097;42.692;23.278;2023-03-24T01:17:23;95099.00;;;6.94;88.50
6132;BME280;3097;42.692;23.278;2023-03-24T01:19:53;95094.84;;;6.86;89.58
6132;BME280;3097;42.692;23.278;2023-03-24T01:22:19;95015.44;;;6.32;89.64
6132;BME280;3097;42.692;23.278;2023-03-24T01:24:48;95097.25;;;7.01;88.89
6132;BME280;3097;42.692;23.278;2023-03-24T01:27:14;95085.22;;;7.02;88.29
6132;BME280;3097;42.692;23.278;2023-03-24T01:29:40;95095.88;;;7.05;88.39
6132;BME280;3097;42.692;23.278;2023-03-24T01:32:06;95094.47;;;6.96;88.87
6132;BME280;3097;42.692;23.278;2023-03-24T01:34:32;95089.97;;;6.98;88.51
6132;BME280;3097;42.692;23.278;2023-03-24T01:36:59;95089.75;;;6.99;88.49
6132;BME280;3097;42.692;23.278;2023-03-24T01:39:24;95091.72;;;6.91;88.96
6132;BME280;3097;42.692;23.278;2023-03-24T01:41:50;95093.66;;;6.89;89.30
6132;BME280;3097;42.692;23.278;2023-03-24T01:46:48;95095.59;;;6.74;89.86
6132;BME280;3097;42.692;23.278;2023-03-24T01:49:14;95096.38;;;6.74;89.57
6132;BME280;3097;42.692;23.278;2023-03-24T01:51:43;95101.47;;;6.68;89.57
6132;BME280;3097;42.692;23.278;2023-03-24T01:54:49;95095.91;;;6.57;89.94
6132;BME280;3097;42.692;23.278;2023-03-24T01:57:25;95094.53;;;6.61;89.81
6132;BME280;3097;42.692;23.278;2023-03-24T01:59:54;95072.41;;;6.47;89.84
6132;BME280;3097;42.692;23.278;2023-03-24T02:02:21;95100.31;;;6.77;89.23
6132;BME280;3097;42.692;23.278;2023-03-24T02:04:54;95099.34;;;6.78;89.04
6132;BME280;3097;42.692;23.278;2023-03-24T02:07:31;95104.03;;;6.68;89.60
6132;BME280;3097;42.692;23.278;2023-03-24T02:09:57;95112.69;;;6.60;89.76
6132;BME280;3097;42.692;23.278;2023-03-24T02:12:22;95036.63;;;6.13;89.67
6132;BME280;3097;42.692;23.278;2023-03-24T02:14:48;95111.28;;;6.57;89.59
6132;BME280;3097;42.692;23.278;2023-03-24T02:17:28;95109.66;;;6.50;90.50
6132;BME280;3097;42.692;23.278;2023-03-24T02:20:16;95111.03;;;6.46;91.16
6132;BME280;3097;42.692;23.278;2023-03-24T02:44:41;95097.03;;;6.42;90.14
6132;BME280;3097;42.692;23.278;2023-03-24T02:47:50;95086.03;;;6.54;89.41
6132;BME280;3097;42.692;23.278;2023-03-24T02:50:51;95069.66;;;6.42;90.08
6132;BME280;3097;42.692;23.278;2023-03-24T02:56:06;95073.59;;;6.38;90.75
6132;BME280;3097;42.692;23.278;2023-03-24T02:58:50;95079.88;;;6.42;90.63
6132;BME280;3097;42.692;23.278;2023-03-24T03:01:24;95075.38;;;6.44;90.28
6132;BME280;3097;42.692;23.278;2023-03-24T03:04:04;95073.97;;;6.42;90.19
6132;BME280;3097;42.692;23.278;2023-03-24T03:06:35;95071.84;;;6.45;90.18
6132;BME280;3097;42.692;23.278;2023-03-24T03:09:08;95079.88;;;6.42;90.39
6132;BME280;3097;42.692;23.278;2023-03-24T03:11:37;95066.69;;;6.39;90.53
6132;BME280;3097;42.692;23.278;2023-03-24T03:14:21;95072.00;;;6.37;91.05
6132;BME280;3097;42.692;23.278;2023-03-24T03:17:05;95058.59;;;6.35;90.39
6132;BME280;3097;42.692;23.278;2023-03-24T03:19:36;95064.06;;;6.32;91.05
6132;BME280;3097;42.692;23.278;2023-03-24T03:22:07;95065.69;;;6.40;90.67
6132;BME280;3097;42.692;23.278;2023-03-24T03:24:38;95076.97;;;6.45;90.77
6132;BME280;3097;42.692;23.278;2023-03-24T03:27:10;95065.28;;;6.36;91.11
6132;BME280;3097;42.692;23.278;2023-03-24T03:29:41;95085.63;;;6.44;91.38
6132;BME280;3097;42.692;23.278;2023-03-24T03:32:13;95074.97;;;6.47;91.49
6132;BME280;3097;42.692;23.278;2023-03-24T03:34:45;95048.16;;;6.37;90.98
6132;BME280;3097;42.692;23.278;2023-03-24T03:37:20;95055.69;;;6.45;91.32
6132;BME280;3097;42.692;23.278;2023-03-24T03:39:52;95040.31;;;6.38;90.72
6132;BME280;3097;42.692;23.278;2023-03-24T03:42:19;95057.88;;;6.54;90.83
6132;BME280;3097;42.692;23.278;2023-03-24T03:44:44;95051.38;;;6.52;89.88
6132;BME280;3097;42.692;23.278;2023-03-24T03:47:11;95053.34;;;6.56;89.94
6132;BME280;3097;42.692;23.278;2023-03-24T03:49:37;95054.72;;;6.52;89.74
6132;BME280;3097;42.692;23.278;2023-03-24T03:52:04;95069.53;;;6.64;88.97
6132;BME280;3097;42.692;23.278;2023-03-24T03:54:30;95063.56;;;6.43;89.21
6132;BME280;3097;42.692;23.278;2023-03-24T03:56:58;95083.06;;;6.44;90.20
6132;BME280;3097;42.692;23.278;2023-03-24T03:59:32;95083.09;;;6.57;89.24
6132;BME280;3097;42.692;23.278;2023-03-24T04:02:49;95083.72;;;6.59;89.61
6132;BME280;3097;42.692;23.278;2023-03-24T04:10:30;95081.31;;;6.51;90.52
6132;BME280;3097;42.692;23.278;2023-03-24T04:15:53;95083.06;;;6.44;90.26
6132;BME280;3097;42.692;23.278;2023-03-24T04:18:27;95085.81;;;6.43;90.23
6132;BME280;3097;42.692;23.278;2023-03-24T04:23:44;95088.34;;;6.36;90.14
6132;BME280;3097;42.692;23.278;2023-03-24T04:26:24;95080.50;;;6.44;89.71
6132;BME280;3097;42.692;23.278;2023-03-24T04:29:14;95085.75;;;6.30;89.98
6132;BME280;3097;42.692;23.278;2023-03-24T04:34:52;95087.72;;;6.34;89.78
6132;BME280;3097;42.692;23.278;2023-03-24T04:37:46;95080.63;;;6.30;90.32
6132;BME280;3097;42.692;23.278;2023-03-24T04:40:13;95070.34;;;6.23;90.05
6132;BME280;3097;42.692;23.278;2023-03-24T04:42:50;95062.72;;;6.30;89.56
6132;BME280;3097;42.692;23.278;2023-03-24T04:45:20;95101.38;;;6.48;89.98
6132;BME280;3097;42.692;23.278;2023-03-24T04:47:53;95070.94;;;6.25;89.94
6132;BME280;3097;42.692;23.278;2023-03-24T04:50:34;95108.09;;;6.55;89.52
6132;BME280;3097;42.692;23.278;2023-03-24T04:53:01;95108.34;;;6.60;89.85
6132;BME280;3097;42.692;23.278;2023-03-24T04:58:28;95111.41;;;6.84;90.21
6132;BME280;3097;42.692;23.278;2023-03-24T05:00:54;95117.03;;;7.40;88.38
6132;BME280;3097;42.692;23.278;2023-03-24T05:03:20;95110.34;;;8.11;85.78
6132;BME280;3097;42.692;23.278;2023-03-24T05:05:48;95117.31;;;8.75;80.12
6132;BME280;3097;42.692;23.278;2023-03-24T05:08:14;95101.88;;;9.51;77.28
6132;BME280;3097;42.692;23.278;2023-03-24T05:10:41;95085.88;;;9.99;72.70
6132;BME280;3097;42.692;23.278;2023-03-24T05:13:07;95128.91;;;10.78;70.26
6132;BME280;3097;42.692;23.278;2023-03-24T05:15:33;95122.66;;;11.34;68.45
6132;BME280;3097;42.692;23.278;2023-03-24T05:17:58;95122.97;;;11.67;67.05
6132;BME280;3097;42.692;23.278;2023-03-24T05:20:24;95122.94;;;12.44;64.58
6132;BME280;3097;42.692;23.278;2023-03-24T05:22:50;95122.47;;;13.10;62.07
6132;BME280;3097;42.692;23.278;2023-03-24T05:25:17;95127.19;;;13.70;59.61
6132;BME280;3097;42.692;23.278;2023-03-24T05:27:44;95130.66;;;14.25;57.71
6132;BME280;3097;42.692;23.278;2023-03-24T05:30:12;95131.97;;;15.05;55.88
6132;BME280;3097;42.692;23.278;2023-03-24T05:32:38;95124.91;;;15.71;53.46
6132;BME280;3097;42.692;23.278;2023-03-24T05:35:05;95132.53;;;16.14;51.70
6132;BME280;3097;42.692;23.278;2023-03-24T05:37:30;95108.59;;;16.54;50.70
6132;BME280;3097;42.692;23.278;2023-03-24T05:39:56;95105.97;;;16.54;50.34
6132;BME280;3097;42.692;23.278;2023-03-24T05:42:22;95127.34;;;15.82;51.92
6132;BME280;3097;42.692;23.278;2023-03-24T05:44:47;95132.72;;;15.00;54.32
6132;BME280;3097;42.692;23.278;2023-03-24T05:47:13;95110.78;;;14.14;56.15
6132;BME280;3097;42.692;23.278;2023-03-24T05:49:43;95080.88;;;13.00;59.16
6132;BME280;3097;42.692;23.278;2023-03-24T05:52:10;95119.09;;;12.69;61.79
6132;BME280;3097;42.692;23.278;2023-03-24T05:54:36;95114.97;;;12.22;64.00
6132;BME280;3097;42.692;23.278;2023-03-24T05:57:04;95124.63;;;11.91;65.71
6132;BME280;3097;42.692;23.278;2023-03-24T05:59:32;95128.00;;;11.62;66.90
6132;BME280;3097;42.692;23.278;2023-03-24T06:01:58;95127.72;;;11.40;68.26
6132;BME280;3097;42.692;23.278;2023-03-24T06:04:24;95128.13;;;11.25;69.23
6132;BME280;3097;42.692;23.278;2023-03-24T06:06:54;95126.06;;;11.46;69.91
6132;BME280;3097;42.692;23.278;2023-03-24T06:09:20;95079.91;;;12.37;65.80
6132;BME280;3097;42.692;23.278;2023-03-24T06:11:46;95122.97;;;14.14;60.70
6132;BME280;3097;42.692;23.278;2023-03-24T06:14:11;95128.81;;;15.46;56.21
6132;BME280;3097;42.692;23.278;2023-03-24T06:16:37;95121.22;;;16.73;52.71
6132;BME280;3097;42.692;23.278;2023-03-24T06:19:06;95112.41;;;17.76;49.81
6132;BME280;3097;42.692;23.278;2023-03-24T06:21:33;95092.00;;;18.49;47.96
6132;BME280;3097;42.692;23.278;2023-03-24T06:23:58;95122.66;;;19.62;45.63
6132;BME280;3097;42.692;23.278;2023-03-24T06:26:25;95128.34;;;20.14;44.51
6132;BME280;3097;42.692;23.278;2023-03-24T06:28:51;95096.47;;;20.64;43.25
6132;BME280;3097;42.692;23.278;2023-03-24T06:31:18;95097.03;;;21.46;41.84
6132;BME280;3097;42.692;23.278;2023-03-24T06:33:49;95102.00;;;22.64;40.07
6132;BME280;3097;42.692;23.278;2023-03-24T06:36:15;95117.22;;;23.22;38.81
6132;BME280;3097;42.692;23.278;2023-03-24T06:38:41;95117.31;;;23.80;37.33
6132;BME280;3097;42.692;23.278;2023-03-24T06:41:07;95105.19;;;24.46;36.69
6132;BME280;3097;42.692;23.278;2023-03-24T06:43:33;95117.31;;;25.26;34.63
6132;BME280;3097;42.692;23.278;2023-03-24T06:46:00;95117.16;;;25.31;34.28
6132;BME280;3097;42.692;23.278;2023-03-24T06:48:27;95118.78;;;25.83;33.49
6132;BME280;3097;42.692;23.278;2023-03-24T06:50:53;95108.50;;;26.80;32.36
6132;BME280;3097;42.692;23.278;2023-03-24T06:53:20;95115.44;;;27.02;31.75
6132;BME280;3097;42.692;23.278;2023-03-24T06:55:48;95119.16;;;27.01;31.49
6132;BME280;3097;42.692;23.278;2023-03-24T06:58:15;95112.22;;;27.47;30.04
6132;BME280;3097;42.692;23.278;2023-03-24T07:00:43;95116.25;;;27.23;30.24
6132;BME280;3097;42.692;23.278;2023-03-24T07:03:09;95116.84;;;27.29;30.58
6132;BME280;3097;42.692;23.278;2023-03-24T07:05:38;95112.59;;;27.66;29.97
6132;BME280;3097;42.692;23.278;2023-03-24T07:08:04;95120.44;;;27.54;30.83
6132;BME280;3097;42.692;23.278;2023-03-24T07:10:30;95124.84;;;27.91;29.95
6132;BME280;3097;42.692;23.278;2023-03-24T07:12:55;95138.38;;;28.64;28.77
6132;BME280;3097;42.692;23.278;2023-03-24T07:15:22;95123.31;;;29.38;27.27
6132;BME280;3097;42.692;23.278;2023-03-24T07:17:47;95108.56;;;29.28;27.86
6132;BME280;3097;42.692;23.278;2023-03-24T07:20:13;95134.03;;;29.41;27.45
6132;BME280;3097;42.692;23.278;2023-03-24T07:22:40;95130.94;;;29.79;27.69
6132;BME280;3097;42.692;23.278;2023-03-24T07:25:06;95129.50;;;29.82;27.33
6132;BME280;3097;42.692;23.278;2023-03-24T07:27:32;95122.94;;;30.04;26.09
6132;BME280;3097;42.692;23.278;2023-03-24T07:29:59;95131.97;;;29.62;26.67
6132;BME280;3097;42.692;23.278;2023-03-24T07:32:24;95095.38;;;29.19;26.74
6132;BME280;3097;42.692;23.278;2023-03-24T07:34:50;95129.03;;;29.03;27.48
6132;BME280;3097;42.692;23.278;2023-03-24T07:37:15;95122.41;;;29.09;27.97
6132;BME280;3097;42.692;23.278;2023-03-24T07:39:41;95124.28;;;28.97;28.50
6132;BME280;3097;42.692;23.278;2023-03-24T07:42:06;95126.81;;;29.05;28.54
6132;BME280;3097;42.692;23.278;2023-03-24T07:44:32;95125.59;;;28.91;29.17
6132;BME280;3097;42.692;23.278;2023-03-24T07:46:57;95125.97;;;28.56;29.34
6132;BME280;3097;42.692;23.278;2023-03-24T07:49:23;95125.09;;;27.98;29.79
6132;BME280;3097;42.692;23.278;2023-03-24T07:51:48;95127.84;;;27.40;30.09
6132;BME280;3097;42.692;23.278;2023-03-24T07:54:13;95114.75;;;26.76;31.54
6132;BME280;3097;42.692;23.278;2023-03-24T07:56:39;95120.00;;;26.03;32.47
6132;BME280;3097;42.692;23.278;2023-03-24T07:59:06;95116.59;;;25.68;33.10
6132;BME280;3097;42.692;23.278;2023-03-24T08:01:34;95109.06;;;25.27;33.40
6132;BME280;3097;42.692;23.278;2023-03-24T08:04:01;95112.72;;;24.92;34.34
6132;BME280;3097;42.692;23.278;2023-03-24T08:06:27;95113.53;;;24.70;36.22
6132;BME280;3097;42.692;23.278;2023-03-24T08:08:53;95065.25;;;24.30;35.22
6132;BME280;3097;42.692;23.278;2023-03-24T08:11:19;95092.66;;;24.20;35.22
6132;BME280;3097;42.692;23.278;2023-03-24T08:13:44;95105.19;;;23.79;35.06
6132;BME280;3097;42.692;23.278;2023-03-24T08:16:10;95104.28;;;22.98;36.30
6132;BME280;3097;42.692;23.278;2023-03-24T08:18:35;95109.09;;;22.63;38.50
6132;BME280;3097;42.692;23.278;2023-03-24T08:21:00;95099.41;;;22.77;38.79
6132;BME280;3097;42.692;23.278;2023-03-24T08:23:26;95099.56;;;23.08;37.71
6132;BME280;3097;42.692;23.278;2023-03-24T08:25:52;95097.25;;;23.21;37.49
6132;BME280;3097;42.692;23.278;2023-03-24T08:28:18;95061.69;;;23.09;36.25
6132;BME280;3097;42.692;23.278;2023-03-24T08:30:43;95092.38;;;23.14;36.23
6132;BME280;3097;42.692;23.278;2023-03-24T08:33:11;95091.41;;;23.10;36.26
6132;BME280;3097;42.692;23.278;2023-03-24T08:35:37;95085.97;;;22.79;36.11
6132;BME280;3097;42.692;23.278;2023-03-24T08:38:03;95081.97;;;22.82;36.68
6132;BME280;3097;42.692;23.278;2023-03-24T08:40:29;95084.22;;;22.74;36.26
6132;BME280;3097;42.692;23.278;2023-03-24T08:42:58;95084.31;;;22.83;37.64
6132;BME280;3097;42.692;23.278;2023-03-24T08:45:27;95073.88;;;22.64;36.69
6132;BME280;3097;42.692;23.278;2023-03-24T08:47:55;95070.34;;;22.42;37.70
6132;BME280;3097;42.692;23.278;2023-03-24T08:50:23;95063.34;;;22.37;38.19
6132;BME280;3097;42.692;23.278;2023-03-24T08:52:49;95068.31;;;22.52;38.02
6132;BME280;3097;42.692;23.278;2023-03-24T08:55:17;95059.66;;;22.38;37.33
6132;BME280;3097;42.692;23.278;2023-03-24T08:57:43;95052.66;;;22.47;38.42
6132;BME280;3097;42.692;23.278;2023-03-24T09:00:10;95052.28;;;22.54;38.00
6132;BME280;3097;42.692;23.278;2023-03-24T09:02:43;95049.16;;;22.38;37.28
6132;BME280;3097;42.692;23.278;2023-03-24T09:05:09;95052.84;;;22.37;37.00
6132;BME280;3097;42.692;23.278;2023-03-24T09:07:36;95049.81;;;22.30;38.64
6132;BME280;3097;42.692;23.278;2023-03-24T09:10:04;95047.75;;;22.27;38.48
6132;BME280;3097;42.692;23.278;2023-03-24T09:12:30;95031.09;;;22.18;38.44
6132;BME280;3097;42.692;23.278;2023-03-24T09:14:55;95035.59;;;22.17;39.64
6132;BME280;3097;42.692;23.278;2023-03-24T09:17:21;95035.22;;;21.91;38.00
6132;BME280;3097;42.692;23.278;2023-03-24T09:19:46;95002.06;;;21.49;38.14
6132;BME280;3097;42.692;23.278;2023-03-24T09:22:12;95033.81;;;21.29;38.79
6132;BME280;3097;42.692;23.278;2023-03-24T09:24:37;95029.97;;;21.03;39.50
6132;BME280;3097;42.692;23.278;2023-03-24T09:27:03;95022.88;;;21.03;40.75
6132;BME280;3097;42.692;23.278;2023-03-24T09:29:29;95028.81;;;21.09;40.53
6132;BME280;3097;42.692;23.278;2023-03-24T09:31:55;95016.47;;;20.91;40.07
6132;BME280;3097;42.692;23.278;2023-03-24T09:34:22;95024.31;;;20.72;41.59
6132;BME280;3097;42.692;23.278;2023-03-24T09:36:48;94965.06;;;20.33;41.11
6132;BME280;3097;42.692;23.278;2023-03-24T09:39:13;95016.56;;;20.14;40.51
6132;BME280;3097;42.692;23.278;2023-03-24T09:41:42;95016.25;;;19.92;41.42
6132;BME280;3097;42.692;23.278;2023-03-24T09:44:30;94999.28;;;19.55;42.10
6132;BME280;3097;42.692;23.278;2023-03-24T09:47:02;95019.97;;;19.52;42.61
6132;BME280;3097;42.692;23.278;2023-03-24T09:49:31;95009.53;;;19.52;42.96
6132;BME280;3097;42.692;23.278;2023-03-24T09:52:20;94997.22;;;19.52;41.94
6132;BME280;3097;42.692;23.278;2023-03-24T09:54:54;94997.97;;;19.58;42.61
6132;BME280;3097;42.692;23.278;2023-03-24T09:57:25;94984.81;;;19.68;41.67
6132;BME280;3097;42.692;23.278;2023-03-24T09:59:53;94991.72;;;19.54;42.22
6132;BME280;3097;42.692;23.278;2023-03-24T10:02:19;94965.44;;;19.35;43.14
6132;BME280;3097;42.692;23.278;2023-03-24T10:04:46;94983.97;;;19.39;43.49
6132;BME280;3097;42.692;23.278;2023-03-24T10:07:20;94984.25;;;19.37;43.48
6132;BME280;3097;42.692;23.278;2023-03-24T10:09:55;94980.03;;;19.02;42.70
6132;BME280;3097;42.692;23.278;2023-03-24T10:15:27;94970.81;;;19.15;41.61
6132;BME280;3097;42.692;23.278;2023-03-24T10:20:51;94971.78;;;18.85;42.80
6132;BME280;3097;42.692;23.278;2023-03-24T10:23:39;94969.22;;;18.75;41.98
6132;BME280;3097;42.692;23.278;2023-03-24T10:29:02;94968.13;;;18.81;44.01
6132;BME280;3097;42.692;23.278;2023-03-24T10:31:35;94966.78;;;18.88;44.63
6132;BME280;3097;42.692;23.278;2023-03-24T10:34:01;94971.91;;;18.54;42.68
6132;BME280;3097;42.692;23.278;2023-03-24T10:36:27;94967.97;;;18.62;42.78
6132;BME280;3097;42.692;23.278;2023-03-24T10:38:53;94964.84;;;18.60;41.66
6132;BME280;3097;42.692;23.278;2023-03-24T10:41:24;94957.34;;;18.38;42.23
6132;BME280;3097;42.692;23.278;2023-03-24T10:43:51;94960.81;;;18.24;42.54
6132;BME280;3097;42.692;23.278;2023-03-24T10:46:20;94954.50;;;18.30;42.53
6132;BME280;3097;42.692;23.278;2023-03-24T10:48:49;94954.03;;;18.23;43.13
6132;BME280;3097;42.692;23.278;2023-03-24T10:51:27;94945.16;;;18.13;43.38
6132;BME280;3097;42.692;23.278;2023-03-24T10:54:18;94950.81;;;18.36;41.93
6132;BME280;3097;42.692;23.278;2023-03-24T10:57:00;94946.72;;;18.25;41.74
6132;BME280;3097;42.692;23.278;2023-03-24T11:04:37;94940.13;;;18.37;41.89
6132;BME280;3097;42.692;23.278;2023-03-24T11:07:16;94944.63;;;18.27;42.22
6132;BME280;3097;42.692;23.278;2023-03-24T11:09:55;94935.81;;;18.07;41.76
6132;BME280;3097;42.692;23.278;2023-03-24T11:12:24;94941.22;;;18.21;40.18
6132;BME280;3097;42.692;23.278;2023-03-24T11:14:50;94931.53;;;18.32;39.99
6132;BME280;3097;42.692;23.278;2023-03-24T11:17:19;94925.81;;;18.30;39.04
6132;BME280;3097;42.692;23.278;2023-03-24T11:19:53;94928.81;;;18.57;40.35
6132;BME280;3097;42.692;23.278;2023-03-24T11:22:19;94911.31;;;18.63;39.73
6132;BME280;3097;42.692;23.278;2023-03-24T11:24:50;94912.53;;;18.75;40.09
6132;BME280;3097;42.692;23.278;2023-03-24T11:27:17;94852.16;;;18.38;38.13
6132;BME280;3097;42.692;23.278;2023-03-24T11:29:48;94901.09;;;18.66;38.79
6132;BME280;3097;42.692;23.278;2023-03-24T11:32:33;94890.59;;;18.76;37.91
6132;BME280;3097;42.692;23.278;2023-03-24T11:35:04;94898.41;;;18.81;37.93
6132;BME280;3097;42.692;23.278;2023-03-24T11:37:33;94883.81;;;18.75;36.84
6132;BME280;3097;42.692;23.278;2023-03-24T11:42:46;94888.03;;;18.71;37.21
6132;BME280;3097;42.692;23.278;2023-03-24T11:45:38;94882.19;;;18.84;37.48
6132;BME280;3097;42.692;23.278;2023-03-24T11:48:23;94878.59;;;18.75;37.64
6132;BME280;3097;42.692;23.278;2023-03-24T11:50:50;94862.84;;;18.85;36.77
6132;BME280;3097;42.692;23.278;2023-03-24T11:53:20;94853.19;;;18.86;37.15
6132;BME280;3097;42.692;23.278;2023-03-24T11:58:30;94857.78;;;18.99;37.28
6132;BME280;3097;42.692;23.278;2023-03-24T12:01:06;94855.56;;;19.11;37.15
6132;BME280;3097;42.692;23.278;2023-03-24T12:04:03;94851.25;;;19.30;36.63
6132;BME280;3097;42.692;23.278;2023-03-24T12:06:55;94851.19;;;19.36;36.68
6132;BME280;3097;42.692;23.278;2023-03-24T12:09:31;94854.22;;;19.48;37.72
6132;BME280;3097;42.692;23.278;2023-03-24T12:12:12;94846.06;;;19.54;38.36
6132;BME280;3097;42.692;23.278;2023-03-24T12:14:50;94845.16;;;19.64;36.30
6132;BME280;3097;42.692;23.278;2023-03-24T12:17:38;94834.09;;;19.72;36.69
6132;BME280;3097;42.692;23.278;2023-03-24T12:22:54;94832.41;;;19.81;34.42
6132;BME280;3097;42.692;23.278;2023-03-24T12:30:43;94813.66;;;19.98;36.03
6132;BME280;3097;42.692;23.278;2023-03-24T12:33:42;94811.31;;;19.96;34.74
6132;BME280;3097;42.692;23.278;2023-03-24T12:39:09;94793.41;;;20.03;33.62
6132;BME280;3097;42.692;23.278;2023-03-24T12:42:01;94800.91;;;19.91;33.29
6132;BME280;3097;42.692;23.278;2023-03-24T12:47:49;94786.94;;;20.20;34.86
6132;BME280;3097;42.692;23.278;2023-03-24T12:55:53;94776.53;;;20.33;30.84
6132;BME280;3097;42.692;23.278;2023-03-24T12:58:35;94774.75;;;20.47;30.15
6132;BME280;3097;42.692;23.278;2023-03-24T13:03:41;94767.13;;;20.51;32.34
6132;BME280;3097;42.692;23.278;2023-03-24T13:06:35;94772.41;;;20.65;31.51
6132;BME280;3097;42.692;23.278;2023-03-24T13:11:35;94757.09;;;20.72;30.72
6132;BME280;3097;42.692;23.278;2023-03-24T13:14:08;94697.00;;;20.29;30.55
6132;BME280;3097;42.692;23.278;2023-03-24T13:16:36;94724.41;;;20.37;30.83
6132;BME280;3097;42.692;23.278;2023-03-24T13:19:02;94751.38;;;20.32;30.49
6132;BME280;3097;42.692;23.278;2023-03-24T13:21:28;94746.38;;;20.17;30.73
6132;BME280;3097;42.692;23.278;2023-03-24T13:24:05;94754.03;;;20.14;30.16
6132;BME280;3097;42.692;23.278;2023-03-24T13:35:19;94748.28;;;19.93;31.81
6132;BME280;3097;42.692;23.278;2023-03-24T13:37:53;94739.38;;;19.75;32.05
6132;BME280;3097;42.692;23.278;2023-03-24T13:40:25;94740.44;;;19.74;32.79
6132;BME280;3097;42.692;23.278;2023-03-24T13:42:57;94745.50;;;19.65;32.93
6132;BME280;3097;42.692;23.278;2023-03-24T13:45:38;94732.00;;;19.58;32.52
6132;BME280;3097;42.692;23.278;2023-03-24T13:48:16;94731.72;;;19.60;32.24
6132;BME280;3097;42.692;23.278;2023-03-24T13:50:54;94728.06;;;19.61;32.28
6132;BME280;3097;42.692;23.278;2023-03-24T13:53:29;94711.06;;;19.58;32.89
6132;BME280;3097;42.692;23.278;2023-03-24T13:55:57;94728.50;;;19.87;32.36
6132;BME280;3097;42.692;23.278;2023-03-24T13:58:26;94720.13;;;19.85;32.11
6132;BME280;3097;42.692;23.278;2023-03-24T14:01:15;94711.22;;;19.86;31.63
6132;BME280;3097;42.692;23.278;2023-03-24T14:03:46;94711.53;;;19.84;32.09
6132;BME280;3097;42.692;23.278;2023-03-24T14:06:46;94664.94;;;19.67;32.65
6132;BME280;3097;42.692;23.278;2023-03-24T14:09:21;94704.38;;;19.90;34.54
6132;BME280;3097;42.692;23.278;2023-03-24T14:14:22;94686.72;;;19.82;32.19
6132;BME280;3097;42.692;23.278;2023-03-24T14:19:23;94696.31;;;20.05;31.70
6132;BME280;3097;42.692;23.278;2023-03-24T14:22:13;94701.47;;;20.10;31.50
6132;BME280;3097;42.692;23.278;2023-03-24T14:24:42;94700.91;;;20.13;32.17
6132;BME280;3097;42.692;23.278;2023-03-24T14:30:00;94690.34;;;20.18;32.43
6132;BME280;3097;42.692;23.278;2023-03-24T14:32:26;94689.47;;;20.23;32.40
6132;BME280;3097;42.692;23.278;2023-03-24T14:34:55;94693.53;;;20.34;31.38
6132;BME280;3097;42.692;23.278;2023-03-24T14:37:23;94687.53;;;20.33;30.91
6132;BME280;3097;42.692;23.278;2023-03-24T14:39:50;94694.44;;;20.24;31.89
6132;BME280;3097;42.692;23.278;2023-03-24T14:45:01;94698.84;;;20.10;32.57
6132;BME280;3097;42.692;23.278;2023-03-24T14:47:37;94694.25;;;20.21;31.71
6132;BME280;3097;42.692;23.278;2023-03-24T14:50:19;94633.97;;;19.75;32.74
6132;BME280;3097;42.692;23.278;2023-03-24T14:52:52;94688.53;;;20.00;33.10
6132;BME280;3097;42.692;23.278;2023-03-24T14:55:19;94682.31;;;19.96;33.20
6132;BME280;3097;42.692;23.278;2023-03-24T14:57:54;94579.03;;;19.37;32.83
6132;BME280;3097;42.692;23.278;2023-03-24T15:00:30;94688.19;;;20.06;32.43
6132;BME280;3097;42.692;23.278;2023-03-24T15:06:13;94682.19;;;19.87;31.34
6132;BME280;3097;42.692;23.278;2023-03-24T15:08:43;94680.28;;;19.74;31.08
6132;BME280;3097;42.692;23.278;2023-03-24T15:11:10;94669.53;;;19.76;31.19
6132;BME280;3097;42.692;23.278;2023-03-24T15:16:27;94677.38;;;19.76;31.29
6132;BME280;3097;42.692;23.278;2023-03-24T15:18:54;94670.38;;;19.71;30.50
6132;BME280;3097;42.692;23.278;2023-03-24T15:23:51;94652.56;;;19.54;31.67
6132;BME280;3097;42.692;23.278;2023-03-24T15:26:19;94683.50;;;19.85;29.93
6132;BME280;3097;42.692;23.278;2023-03-24T15:28:52;94566.50;;;18.97;30.12